createdAt,value
2023-03-01T00:00:02.411Z,50.3
2023-03-01T00:05:06.120Z,50.6
2023-03-01T00:10:06.056Z,50.4
2023-03-01T00:15:06.830Z,50.6
2023-03-01T00:20:06.085Z,52.2
2023-03-01T00:25:01.847Z,55.4
2023-03-01T00:30:06.878Z,57.3
2023-03-01T00:35:06.768Z,55.6
2023-03-01T00:40:01.099Z,58.1
2023-03-01T00:45:01.737Z,62.2
2023-03-01T00:50:01.596Z,54.0
2023-03-01T00:55:01.094Z,54.4
2023-03-01T01:00:01.054Z,56.8
2023-03-01T01:05:06.090Z,57.3
2023-03-01T01:10:01.081Z,50.2
2023-03-01T01:15:01.484Z,57.9
2023-03-01T01:20:01.085Z,58.7
2023-03-01T01:25:01.054Z,55.0
2023-03-01T01:30:02.270Z,56.0
2023-03-01T01:35:01.682Z,64.2
2023-03-01T01:40:01.093Z,65.3
2023-03-01T01:45:21.631Z,63.6
2023-03-01T01:50:01.049Z,68.2
2023-03-01T01:55:01.109Z,67.3
2023-03-01T02:00:06.642Z,60.2
2023-03-01T02:05:01.059Z,61.7
2023-03-01T02:10:06.086Z,55.9
2023-03-01T02:15:01.592Z,58.0
2023-03-01T02:20:06.097Z,58.9
2023-03-01T02:25:01.072Z,62.0
2023-03-01T02:30:01.617Z,63.5
2023-03-01T02:35:01.068Z,70.4
2023-03-01T02:40:02.120Z,68.7
2023-03-01T02:45:01.756Z,70.2
2023-03-01T02:50:01.323Z,72.0
2023-03-01T02:55:06.072Z,70.4
2023-03-01T03:00:07.572Z,72.6
2023-03-01T03:05:01.057Z,73.5
2023-03-01T03:10:01.082Z,72.3
2023-03-01T03:15:07.826Z,71.0
2023-03-01T03:20:01.061Z,68.0
2023-03-01T03:25:01.062Z,67.5
2023-03-01T03:30:01.502Z,66.0
2023-03-01T03:35:06.079Z,65.1
2023-03-01T03:40:01.069Z,68.6
2023-03-01T03:45:01.478Z,69.1
2023-03-01T03:50:06.092Z,68.5
2023-03-01T03:55:01.072Z,70.2
2023-03-01T04:00:01.726Z,68.7
2023-03-01T04:05:07.249Z,60.1
2023-03-01T04:10:01.081Z,62.3
2023-03-01T04:15:16.842Z,59.6
2023-03-01T04:20:01.086Z,57.6
2023-03-01T04:25:06.088Z,58.8
2023-03-01T04:30:02.438Z,66.8
2023-03-01T04:35:01.068Z,66.6
2023-03-01T04:40:07.246Z,68.0
2023-03-01T04:45:01.505Z,69.8
2023-03-01T04:50:06.050Z,62.9
2023-03-01T04:55:01.061Z,62.3
2023-03-01T05:00:02.311Z,61.4
2023-03-01T05:05:01.084Z,62.4
2023-03-01T05:10:01.056Z,60.7
2023-03-01T05:15:01.793Z,68.6
2023-03-01T05:20:01.074Z,68.3
2023-03-01T05:25:01.088Z,65.8
2023-03-01T05:30:07.115Z,66.0
2023-03-01T05:35:06.061Z,67.4
2023-03-01T05:40:01.058Z,66.1
2023-03-01T05:45:01.991Z,62.2
2023-03-01T05:50:06.082Z,64.6
2023-03-01T05:55:07.027Z,61.8
2023-03-01T06:00:01.529Z,59.8
2023-03-01T06:05:01.569Z,60.1
2023-03-01T06:10:01.091Z,63.4
2023-03-01T06:15:07.276Z,64.6
2023-03-01T06:20:06.094Z,65.8
2023-03-01T06:25:01.060Z,67.3
2023-03-01T06:30:01.728Z,67.0
2023-03-01T06:35:02.430Z,66.8
2023-03-01T06:40:07.330Z,67.5
2023-03-01T06:45:07.309Z,69.6
2023-03-01T06:50:02.202Z,69.5
2023-03-01T06:55:02.493Z,71.4
2023-03-01T07:00:02.340Z,72.0
2023-03-01T07:05:01.076Z,71.4
2023-03-01T07:10:07.319Z,72.8
2023-03-01T07:15:01.645Z,79.7
2023-03-01T07:20:01.625Z,84.4
2023-03-01T07:25:06.742Z,88.4
2023-03-01T07:30:01.888Z,84.2
2023-03-01T07:36:06.080Z,85.6
2023-03-01T07:41:06.065Z,80.6
2023-03-01T07:46:01.115Z,78.3
2023-03-01T07:51:01.054Z,75.0
2023-03-01T07:56:04.356Z,79.9
2023-03-01T08:01:02.441Z,77.2
2023-03-01T08:06:01.065Z,76.3
2023-03-01T08:11:02.945Z,70.0
2023-03-01T08:16:03.280Z,69.6
2023-03-01T08:21:11.244Z,68.3
2023-03-01T08:26:16.411Z,66.5
2023-03-01T08:31:01.054Z,64.6
2023-03-01T08:36:06.600Z,68.4
2023-03-01T08:41:02.800Z,67.3
2023-03-01T08:46:01.174Z,67.4
2023-03-01T08:51:06.526Z,68.5
2023-03-01T08:56:01.079Z,68.8
2023-03-01T09:01:06.096Z,68.2
2023-03-01T09:06:01.084Z,68.5
2023-03-01T09:11:01.057Z,66.6
2023-03-01T09:16:06.172Z,65.5
2023-03-01T09:21:01.078Z,66.0
2023-03-01T09:26:06.617Z,66.8
2023-03-01T09:31:01.132Z,67.2
2023-03-01T09:36:08.280Z,69.4
2023-03-01T09:41:11.247Z,70.6
2023-03-01T09:46:05.683Z,69.7
2023-03-01T09:51:08.806Z,68.0
2023-03-01T09:56:01.117Z,66.9
2023-03-01T10:01:26.617Z,65.8
2023-03-01T10:06:24.091Z,65.3
2023-03-01T10:16:01.181Z,65.6
2023-03-01T10:21:06.067Z,64.8
2023-03-01T10:26:01.069Z,62.3
2023-03-01T10:31:06.704Z,60.0
2023-03-01T10:36:06.086Z,58.0
2023-03-01T10:41:05.973Z,55.0
2023-03-01T10:46:01.088Z,53.6
2023-03-01T10:51:01.081Z,51.8
2023-03-01T10:56:01.078Z,51.9
2023-03-01T11:01:06.457Z,51.1
2023-03-01T11:06:01.103Z,51.6
2023-03-01T11:11:06.797Z,51.2
2023-03-01T11:16:06.136Z,52.7
2023-03-01T11:21:01.095Z,51.0
2023-03-01T11:31:08.080Z,49.6
2023-03-01T11:36:06.138Z,49.4
2023-03-01T11:41:06.083Z,48.7
2023-03-01T11:51:06.091Z,47.0
2023-03-01T11:56:17.090Z,45.3
2023-03-01T12:01:07.815Z,41.2
2023-03-01T12:06:02.036Z,38.9
2023-03-01T12:25:17.366Z,41.8
2023-03-01T12:30:27.793Z,35.8
2023-03-01T12:35:06.339Z,31.9
2023-03-01T12:40:01.207Z,33.6
2023-03-01T12:45:21.639Z,34.8
2023-03-01T12:51:01.095Z,32.6
2023-03-01T12:56:01.069Z,32.3
2023-03-01T13:01:06.123Z,34.8
2023-03-01T13:06:01.588Z,34.1
2023-03-01T13:11:01.050Z,35.3
2023-03-01T13:16:06.062Z,37.0
2023-03-01T13:21:01.095Z,40.5
2023-03-01T13:26:01.065Z,40.6
2023-03-01T13:31:01.050Z,41.0
2023-03-01T13:36:01.103Z,40.7
2023-03-01T13:41:06.122Z,40.6
2023-03-01T13:46:01.767Z,38.6
2023-03-01T13:51:01.060Z,40.6
2023-03-01T13:56:09.257Z,40.3
2023-03-01T14:01:01.128Z,38.5
2023-03-01T14:06:12.903Z,37.1
2023-03-01T14:11:06.069Z,36.2
2023-03-01T14:16:06.255Z,32.8
2023-03-01T14:26:01.055Z,31.2
2023-03-01T14:31:06.111Z,32.8
2023-03-01T14:36:06.098Z,34.2
2023-03-01T14:41:06.778Z,35.3
2023-03-01T14:46:01.068Z,35.2
2023-03-01T14:51:06.058Z,37.9
2023-03-01T14:56:06.166Z,38.0
2023-03-01T15:01:06.061Z,37.8
2023-03-01T15:11:08.717Z,40.3
2023-03-01T15:16:01.154Z,39.2
2023-03-01T15:21:06.062Z,38.4
2023-03-01T15:26:06.076Z,38.1
2023-03-01T15:31:01.108Z,38.8
2023-03-01T15:36:06.172Z,36.5
2023-03-01T15:41:06.083Z,38.3
2023-03-01T15:46:01.165Z,38.1
2023-03-01T15:51:12.770Z,37.4
2023-03-01T15:56:01.062Z,36.0
2023-03-01T16:01:14.082Z,36.8
2023-03-01T16:06:06.075Z,34.1
2023-03-01T16:11:06.130Z,32.7
2023-03-01T16:16:01.103Z,34.4
2023-03-01T16:21:01.048Z,35.1
2023-03-01T16:26:01.053Z,34.6
2023-03-01T16:36:01.236Z,36.2
2023-03-01T16:41:01.537Z,35.0
2023-03-01T16:46:01.098Z,36.4
2023-03-01T16:51:01.780Z,35.7
2023-03-01T16:56:01.147Z,37.8
2023-03-01T17:01:06.887Z,39.7
2023-03-01T17:06:06.074Z,39.6
2023-03-01T17:11:02.847Z,40.6
2023-03-01T17:16:03.968Z,43.1
2023-03-01T17:21:06.079Z,43.2
2023-03-01T17:26:01.679Z,41.7
2023-03-01T17:31:01.113Z,42.4
2023-03-01T17:36:01.813Z,39.2
2023-03-01T17:41:06.066Z,37.6
2023-03-01T17:46:06.250Z,35.2
2023-03-01T17:51:06.146Z,36.9
2023-03-01T17:56:06.423Z,38.0
2023-03-01T18:01:01.324Z,39.1
2023-03-01T18:06:02.569Z,39.6
2023-03-01T18:11:06.115Z,41.5
2023-03-01T18:16:01.071Z,39.7
2023-03-01T18:21:06.077Z,39.9
2023-03-01T18:26:03.211Z,39.1
2023-03-01T18:31:01.206Z,38.7
2023-03-01T18:36:06.188Z,38.8
2023-03-01T18:41:01.070Z,39.8
2023-03-01T18:46:06.105Z,40.1
2023-03-01T18:51:01.055Z,38.1
2023-03-01T18:56:01.350Z,37.3
2023-03-01T19:01:01.239Z,36.2
2023-03-01T19:06:06.656Z,36.6
2023-03-01T19:11:01.351Z,38.5
2023-03-01T19:16:06.113Z,43.0
2023-03-01T19:21:06.049Z,44.2
2023-03-01T19:26:01.085Z,46.0
2023-03-01T19:31:06.111Z,45.4
2023-03-01T19:36:06.063Z,42.8
2023-03-01T19:41:07.851Z,41.0
2023-03-01T19:46:01.115Z,41.6
2023-03-01T19:51:01.056Z,38.6
2023-03-01T19:56:06.097Z,38.8
2023-03-01T20:01:03.138Z,36.1
2023-03-01T20:06:06.043Z,37.2
2023-03-01T20:11:06.056Z,37.0
2023-03-01T20:16:06.139Z,38.0
2023-03-01T20:21:11.801Z,36.7
2023-03-01T20:26:06.084Z,36.8
2023-03-01T20:31:01.106Z,35.8
2023-03-01T20:36:06.327Z,33.6
2023-03-01T20:41:08.684Z,35.6
2023-03-01T20:46:01.068Z,34.9
2023-03-01T20:51:06.060Z,37.1
2023-03-01T20:56:06.218Z,37.8
2023-03-01T21:01:02.103Z,39.1
2023-03-01T21:06:01.060Z,38.8
2023-03-01T21:11:07.020Z,41.5
2023-03-01T21:16:06.248Z,40.7
2023-03-01T21:21:06.060Z,40.5
2023-03-01T21:26:01.077Z,38.8
2023-03-01T21:31:01.061Z,33.9
2023-03-01T21:36:01.209Z,32.8
2023-03-01T21:41:01.097Z,33.4
2023-03-01T21:46:06.117Z,32.7
2023-03-01T21:51:01.098Z,35.7
2023-03-01T21:56:01.123Z,38.9
2023-03-01T22:01:01.082Z,39.1
2023-03-01T22:06:06.433Z,39.3
2023-03-01T22:11:06.181Z,40.0
2023-03-01T22:16:01.046Z,40.2
2023-03-01T22:21:06.066Z,43.3
2023-03-01T22:26:06.619Z,43.8
2023-03-01T22:31:06.182Z,43.6
2023-03-01T22:36:07.170Z,45.1
2023-03-01T22:41:06.089Z,44.7
2023-03-01T22:46:01.122Z,41.9
2023-03-01T22:51:01.083Z,43.1
2023-03-01T22:56:01.096Z,45.1
2023-03-01T23:01:01.316Z,44.8
2023-03-01T23:06:06.762Z,43.6
2023-03-01T23:11:02.412Z,44.0
2023-03-01T23:16:01.060Z,44.1
2023-03-01T23:21:18.315Z,44.8
2023-03-01T23:26:01.060Z,45.7
2023-03-01T23:31:06.090Z,46.1
2023-03-01T23:36:01.714Z,47.8
2023-03-01T23:41:01.087Z,45.2
2023-03-01T23:46:06.123Z,44.4
2023-03-01T23:51:03.377Z,43.8
2023-03-01T23:56:06.084Z,44.8
